createdAt,value
2023-03-29T00:00:11.275Z,65.34
2023-03-29T00:01:11.240Z,65.55
2023-03-29T00:02:12.314Z,65.86
2023-03-29T00:03:11.519Z,65.97
2023-03-29T00:04:11.261Z,66.07
2023-03-29T00:05:11.193Z,65.76
2023-03-29T00:06:11.181Z,65.76
2023-03-29T00:07:11.175Z,65.66
2023-03-29T00:08:11.198Z,65.76
2023-03-29T00:09:11.148Z,65.76
2023-03-29T00:10:11.159Z,66.38
2023-03-29T00:11:11.131Z,65.97
2023-03-29T00:12:11.192Z,65.89
2023-03-29T00:13:11.109Z,66.41
2023-03-29T00:14:11.101Z,66.33
2023-03-29T00:15:11.103Z,66.33
2023-03-29T00:16:11.177Z,66.33
2023-03-29T00:17:11.181Z,66.75
2023-03-29T00:18:11.055Z,67.16
2023-03-29T00:19:11.054Z,66.96
2023-03-29T00:20:11.046Z,66.64
2023-03-29T00:21:11.038Z,66.75
2023-03-29T00:22:11.007Z,67.99
2023-03-29T00:23:11.028Z,67.16
2023-03-29T00:24:11.045Z,66.75
2023-03-29T00:25:10.991Z,66.78
2023-03-29T00:26:10.980Z,67.61
2023-03-29T00:27:10.955Z,67.71
2023-03-29T00:28:11.091Z,67.40
2023-03-29T00:29:10.932Z,67.30
2023-03-29T00:30:10.930Z,67.40
2023-03-29T00:31:10.948Z,67.30
2023-03-29T00:32:10.929Z,67.64
2023-03-29T00:33:10.988Z,67.74
2023-03-29T00:34:10.921Z,67.54
2023-03-29T00:35:10.870Z,67.74
2023-03-29T00:36:10.926Z,67.71
2023-03-29T00:37:10.858Z,67.40
2023-03-29T00:38:10.866Z,67.50
2023-03-29T00:39:10.847Z,67.61
2023-03-29T00:40:10.826Z,67.30
2023-03-29T00:41:10.817Z,67.40
2023-03-29T00:42:10.793Z,67.30
2023-03-29T00:43:10.787Z,67.40
2023-03-29T00:44:10.813Z,67.50
2023-03-29T00:45:10.764Z,67.40
2023-03-29T00:46:10.806Z,67.40
2023-03-29T00:47:10.754Z,67.58
2023-03-29T00:48:10.781Z,67.47
2023-03-29T00:49:10.754Z,67.47
2023-03-29T00:50:10.723Z,67.78
2023-03-29T00:51:10.739Z,67.68
2023-03-29T00:52:10.738Z,67.58
2023-03-29T00:53:10.688Z,67.61
2023-03-29T00:54:10.699Z,67.30
2023-03-29T00:55:10.652Z,67.50
2023-03-29T00:56:10.647Z,67.61
2023-03-29T00:57:10.682Z,67.61
2023-03-29T00:58:10.623Z,67.40
2023-03-29T00:59:10.637Z,67.71
2023-03-29T01:00:10.614Z,67.50
2023-03-29T01:01:10.596Z,67.50
2023-03-29T01:02:10.597Z,67.40
2023-03-29T01:03:10.614Z,67.50
2023-03-29T01:04:10.607Z,67.50
2023-03-29T01:05:10.555Z,67.47
2023-03-29T01:06:10.550Z,67.61
2023-03-29T01:07:11.153Z,67.47
2023-03-29T01:08:10.526Z,67.47
2023-03-29T01:09:10.507Z,67.37
2023-03-29T01:10:10.529Z,67.58
2023-03-29T01:11:10.492Z,67.58
2023-03-29T01:12:10.479Z,67.78
2023-03-29T01:13:10.470Z,67.58
2023-03-29T01:14:19.613Z,68.12
2023-03-29T01:15:10.484Z,67.50
2023-03-29T01:16:10.496Z,67.61
2023-03-29T01:17:10.446Z,67.40
2023-03-29T01:18:10.450Z,67.71
2023-03-29T01:19:10.407Z,67.61
2023-03-29T01:20:19.664Z,67.74
2023-03-29T01:21:10.385Z,67.95
2023-03-29T01:22:10.402Z,68.12
2023-03-29T01:23:10.355Z,68.23
2023-03-29T01:24:10.348Z,67.91
2023-03-29T01:25:10.346Z,67.61
2023-03-29T01:26:10.333Z,67.61
2023-03-29T01:27:10.359Z,67.37
2023-03-29T01:28:10.333Z,67.47
2023-03-29T01:29:10.305Z,67.27
2023-03-29T01:30:10.329Z,67.37
2023-03-29T01:31:10.281Z,67.47
2023-03-29T01:32:10.372Z,67.78
2023-03-29T01:33:19.651Z,67.68
2023-03-29T01:34:10.236Z,67.47
2023-03-29T01:35:10.235Z,67.58
2023-03-29T01:36:10.270Z,67.68
2023-03-29T01:37:10.207Z,67.47
2023-03-29T01:38:10.231Z,67.47
2023-03-29T01:39:10.209Z,67.47
2023-03-29T01:40:10.175Z,67.44
2023-03-29T01:41:10.162Z,67.68
2023-03-29T01:42:10.158Z,67.47
2023-03-29T01:43:10.138Z,67.27
2023-03-29T01:44:10.171Z,67.37
2023-03-29T01:45:10.122Z,67.47
2023-03-29T01:46:10.216Z,67.44
2023-03-29T01:47:10.099Z,67.58
2023-03-29T01:48:10.089Z,67.34
2023-03-29T01:49:10.112Z,67.58
2023-03-29T01:50:10.104Z,67.75
2023-03-29T01:51:10.067Z,67.06
2023-03-29T01:52:10.066Z,67.78
2023-03-29T01:53:10.053Z,67.06
2023-03-29T01:54:10.054Z,67.85
2023-03-29T01:55:10.050Z,67.47
2023-03-29T01:56:10.003Z,67.75
2023-03-29T01:57:10.014Z,66.75
2023-03-29T01:58:09.985Z,66.72
2023-03-29T01:59:09.978Z,66.85
2023-03-29T02:00:09.993Z,66.54
2023-03-29T02:01:10.045Z,66.96
2023-03-29T02:02:09.975Z,66.75
2023-03-29T02:03:10.048Z,67.68
2023-03-29T02:04:09.931Z,67.58
2023-03-29T02:05:09.950Z,67.68
2023-03-29T02:06:09.939Z,67.58
2023-03-29T02:07:09.885Z,67.78
2023-03-29T02:08:09.898Z,67.58
2023-03-29T02:09:09.869Z,67.16
2023-03-29T02:10:09.899Z,66.75
2023-03-29T02:11:09.854Z,66.44
2023-03-29T02:12:09.859Z,66.96
2023-03-29T02:13:09.832Z,66.75
2023-03-29T02:14:09.816Z,66.44
2023-03-29T02:15:09.799Z,66.57
2023-03-29T02:16:09.861Z,67.16
2023-03-29T02:17:09.782Z,66.75
2023-03-29T02:18:09.835Z,66.75
2023-03-29T02:19:09.775Z,66.75
2023-03-29T02:20:09.763Z,66.75
2023-03-29T02:21:09.768Z,66.23
2023-03-29T02:22:09.766Z,66.57
2023-03-29T02:23:09.720Z,66.67
2023-03-29T02:24:09.824Z,66.88
2023-03-29T02:25:09.698Z,67.82
2023-03-29T02:26:09.686Z,67.09
2023-03-29T02:27:09.674Z,67.91
2023-03-29T02:28:09.706Z,67.78
2023-03-29T02:29:09.661Z,66.99
2023-03-29T02:30:09.641Z,66.75
2023-03-29T02:31:09.690Z,66.54
2023-03-29T02:32:09.628Z,67.40
2023-03-29T02:33:09.649Z,66.44
2023-03-29T02:34:09.628Z,66.44
2023-03-29T02:35:09.591Z,66.44
2023-03-29T02:36:09.595Z,67.47
2023-03-29T02:37:09.561Z,66.54
2023-03-29T02:38:09.581Z,66.57
2023-03-29T02:39:09.547Z,67.61
2023-03-29T02:40:09.554Z,66.57
2023-03-29T02:41:09.529Z,66.57
2023-03-29T02:42:09.569Z,66.57
2023-03-29T02:43:09.542Z,66.88
2023-03-29T02:44:09.498Z,66.57
2023-03-29T02:45:09.486Z,67.40
2023-03-29T02:46:09.517Z,66.47
2023-03-29T02:47:09.465Z,66.78
2023-03-29T02:48:09.510Z,66.99
2023-03-29T02:49:09.463Z,66.78
2023-03-29T02:50:09.467Z,67.30
2023-03-29T02:51:09.415Z,66.78
2023-03-29T02:52:09.405Z,66.26
2023-03-29T02:53:09.400Z,67.09
2023-03-29T02:54:09.431Z,66.67
2023-03-29T02:55:09.405Z,66.47
2023-03-29T02:56:09.376Z,67.50
2023-03-29T02:57:09.473Z,67.71
2023-03-29T02:58:09.382Z,67.71
2023-03-29T02:59:09.373Z,67.71
2023-03-29T03:00:09.316Z,66.99
2023-03-29T03:01:09.333Z,66.47
2023-03-29T03:02:09.330Z,66.36
2023-03-29T03:03:09.433Z,66.39
2023-03-29T03:04:09.408Z,67.85
2023-03-29T03:05:09.295Z,66.78
2023-03-29T03:06:09.254Z,66.71
2023-03-29T03:07:09.251Z,67.74
2023-03-29T03:08:09.231Z,67.85
2023-03-29T03:09:09.220Z,67.85
2023-03-29T03:10:09.256Z,67.85
2023-03-29T03:11:09.211Z,67.64
2023-03-29T03:12:09.231Z,67.54
2023-03-29T03:13:09.195Z,67.74
2023-03-29T03:14:09.166Z,67.54
2023-03-29T03:15:09.343Z,67.43
2023-03-29T03:16:09.164Z,67.64
2023-03-29T03:17:09.139Z,67.64
2023-03-29T03:18:09.170Z,67.54
2023-03-29T03:19:09.121Z,67.57
2023-03-29T03:20:09.134Z,67.57
2023-03-29T03:21:09.095Z,67.57
2023-03-29T03:22:09.112Z,67.77
2023-03-29T03:23:09.070Z,67.67
2023-03-29T03:24:09.056Z,67.77
2023-03-29T03:25:09.053Z,67.67
2023-03-29T03:26:09.063Z,67.88
2023-03-29T03:27:09.061Z,67.98
2023-03-29T03:28:09.076Z,67.67
2023-03-29T03:29:09.012Z,67.77
2023-03-29T03:30:08.997Z,67.77
2023-03-29T03:31:09.024Z,67.77
2023-03-29T03:32:09.049Z,67.77
2023-03-29T03:33:08.997Z,67.67
2023-03-29T03:34:08.948Z,67.67
2023-03-29T03:35:08.936Z,67.67
2023-03-29T03:36:08.961Z,67.46
2023-03-29T03:37:08.951Z,67.88
2023-03-29T03:38:08.898Z,67.67
2023-03-29T03:39:08.926Z,67.77
2023-03-29T03:40:08.908Z,67.67
2023-03-29T03:41:08.881Z,67.57
2023-03-29T03:42:08.884Z,67.36
2023-03-29T03:43:08.891Z,67.54
2023-03-29T03:44:08.897Z,67.64
2023-03-29T03:45:08.824Z,67.67
2023-03-29T03:46:08.850Z,67.54
2023-03-29T03:47:08.801Z,67.74
2023-03-29T03:48:08.863Z,66.60
2023-03-29T03:49:08.808Z,67.33
2023-03-29T03:50:08.770Z,67.77
2023-03-29T03:51:08.756Z,67.77
2023-03-29T03:52:08.777Z,67.67
2023-03-29T03:53:08.754Z,67.67
2023-03-29T03:54:08.764Z,67.36
2023-03-29T03:55:08.714Z,67.46
2023-03-29T03:56:08.771Z,67.57
2023-03-29T03:57:08.736Z,67.88
2023-03-29T03:58:08.681Z,67.57
2023-03-29T03:59:08.672Z,67.46
2023-03-29T04:00:08.721Z,67.33
2023-03-29T04:01:08.673Z,67.54
2023-03-29T04:02:08.667Z,67.54
2023-03-29T04:03:08.966Z,67.33
2023-03-29T04:04:08.645Z,67.77
2023-03-29T04:05:08.616Z,67.57
2023-03-29T04:06:08.634Z,67.43
2023-03-29T04:07:08.593Z,67.85
2023-03-29T04:08:08.576Z,67.57
2023-03-29T04:09:08.567Z,67.77
2023-03-29T04:10:08.549Z,67.67
2023-03-29T04:11:08.586Z,67.98
2023-03-29T04:12:08.564Z,67.98
2023-03-29T04:13:08.532Z,67.57
2023-03-29T04:14:08.513Z,67.57
2023-03-29T04:15:08.502Z,67.77
2023-03-29T04:16:08.581Z,67.77
2023-03-29T04:17:08.474Z,67.67
2023-03-29T04:18:08.549Z,67.88
2023-03-29T04:19:08.457Z,67.77
2023-03-29T04:20:08.443Z,67.67
2023-03-29T04:21:08.451Z,67.77
2023-03-29T04:22:08.463Z,67.88
2023-03-29T04:23:08.408Z,67.49
2023-03-29T04:24:08.401Z,67.70
2023-03-29T04:25:08.395Z,67.57
2023-03-29T04:26:08.390Z,68.29
2023-03-29T04:27:08.392Z,68.43
2023-03-29T04:28:08.446Z,68.29
2023-03-29T04:29:08.357Z,67.88
2023-03-29T04:30:08.347Z,67.57
2023-03-29T04:31:08.404Z,67.67
2023-03-29T04:32:08.384Z,67.46
2023-03-29T04:33:08.357Z,67.57
2023-03-29T04:34:08.311Z,67.57
2023-03-29T04:35:08.285Z,67.60
2023-03-29T04:36:08.336Z,67.67
2023-03-29T04:37:08.316Z,68.12
2023-03-29T04:38:08.282Z,68.22
2023-03-29T04:39:08.249Z,68.01
2023-03-29T04:40:08.249Z,67.98
2023-03-29T04:41:08.239Z,68.22
2023-03-29T04:42:08.207Z,68.32
2023-03-29T04:43:08.245Z,68.40
2023-03-29T04:44:08.196Z,68.53
2023-03-29T04:45:08.229Z,68.53
2023-03-29T04:46:08.226Z,68.32
2023-03-29T04:47:08.163Z,68.40
2023-03-29T04:48:08.245Z,68.40
2023-03-29T04:49:08.178Z,68.40
2023-03-29T04:50:08.201Z,68.40
2023-03-29T04:51:08.127Z,67.98
2023-03-29T04:52:08.108Z,67.67
2023-03-29T04:53:08.101Z,67.77
2023-03-29T04:54:08.090Z,67.67
2023-03-29T04:55:08.083Z,68.60
2023-03-29T04:56:08.101Z,68.49
2023-03-29T04:57:08.154Z,68.19
2023-03-29T04:58:08.038Z,68.29
2023-03-29T04:59:08.092Z,67.57
2023-03-29T05:00:08.028Z,67.67
2023-03-29T05:01:08.020Z,67.57
2023-03-29T05:02:08.110Z,67.49
2023-03-29T05:03:08.068Z,68.22
2023-03-29T05:04:08.867Z,68.84
2023-03-29T05:05:08.015Z,71.60
2023-03-29T05:06:07.971Z,73.67
2023-03-29T05:07:07.973Z,72.91
2023-03-29T05:08:07.936Z,71.36
2023-03-29T05:09:07.923Z,71.53
2023-03-29T05:10:07.932Z,69.98
2023-03-29T05:11:07.975Z,68.12
2023-03-29T05:12:07.888Z,67.71
2023-03-29T05:13:07.888Z,67.50
2023-03-29T05:14:07.864Z,67.50
2023-03-29T05:15:07.867Z,67.71
2023-03-29T05:16:08.020Z,67.85
2023-03-29T05:17:07.843Z,67.36
2023-03-29T05:18:07.964Z,67.43
2023-03-29T05:19:07.821Z,67.77
2023-03-29T05:20:07.892Z,67.88
2023-03-29T05:21:07.792Z,67.77
2023-03-29T05:22:07.789Z,67.57
2023-03-29T05:23:07.772Z,67.77
2023-03-29T05:24:07.778Z,67.57
2023-03-29T05:25:07.758Z,67.57
2023-03-29T05:26:07.771Z,67.77
2023-03-29T05:27:07.787Z,67.77
2023-03-29T05:28:07.740Z,67.77
2023-03-29T05:29:07.720Z,67.36
2023-03-29T05:30:07.702Z,67.57
2023-03-29T05:31:07.755Z,67.67
2023-03-29T05:32:07.773Z,67.88
2023-03-29T05:33:07.771Z,67.85
2023-03-29T05:34:07.664Z,67.95
2023-03-29T05:35:07.662Z,67.54
2023-03-29T05:36:07.760Z,67.64
2023-03-29T05:37:07.633Z,67.64
2023-03-29T05:38:07.790Z,67.02
2023-03-29T05:39:07.598Z,66.91
2023-03-29T05:40:07.585Z,67.64
2023-03-29T05:41:07.597Z,67.74
2023-03-29T05:42:07.566Z,66.60
2023-03-29T05:43:07.550Z,66.71
2023-03-29T05:44:07.583Z,66.60
2023-03-29T05:45:07.532Z,66.71
2023-03-29T05:46:07.643Z,67.09
2023-03-29T05:47:07.507Z,67.40
2023-03-29T05:48:07.558Z,66.57
2023-03-29T05:49:07.530Z,66.88
2023-03-29T05:50:07.530Z,66.26
2023-03-29T05:51:07.510Z,66.16
2023-03-29T05:52:07.493Z,66.16
2023-03-29T05:53:07.451Z,65.95
2023-03-29T05:54:07.429Z,66.36
2023-03-29T05:55:07.501Z,66.13
2023-03-29T05:56:07.421Z,66.03
2023-03-29T05:57:07.425Z,66.23
2023-03-29T05:58:07.399Z,66.23
2023-03-29T05:59:07.426Z,66.36
2023-03-29T06:00:07.395Z,65.75
2023-03-29T06:01:07.356Z,65.61
2023-03-29T06:02:07.357Z,65.92
2023-03-29T06:03:18.078Z,65.51
2023-03-29T06:04:08.446Z,65.82
2023-03-29T06:05:07.450Z,65.54
2023-03-29T06:06:07.326Z,66.36
2023-03-29T06:07:07.308Z,65.64
2023-03-29T06:08:07.319Z,65.64
2023-03-29T06:09:07.294Z,65.54
2023-03-29T06:10:07.301Z,66.16
2023-03-29T06:11:07.533Z,65.85
2023-03-29T06:12:07.259Z,66.57
2023-03-29T06:13:07.242Z,66.16
2023-03-29T06:14:07.232Z,65.95
2023-03-29T06:15:07.218Z,65.72
2023-03-29T06:16:07.232Z,65.72
2023-03-29T06:17:07.287Z,65.82
2023-03-29T06:18:07.255Z,65.09
2023-03-29T06:19:07.178Z,64.58
2023-03-29T06:20:07.170Z,65.30
2023-03-29T06:21:07.178Z,64.27
2023-03-29T06:22:07.137Z,65.12
2023-03-29T06:23:07.148Z,65.33
2023-03-29T06:24:07.150Z,65.85
2023-03-29T06:25:07.117Z,66.23
2023-03-29T06:26:07.132Z,65.72
2023-03-29T06:27:07.085Z,65.09
2023-03-29T06:28:07.079Z,65.92
2023-03-29T06:29:07.066Z,65.92
2023-03-29T06:30:07.065Z,66.03
2023-03-29T06:31:07.296Z,64.24
2023-03-29T06:32:07.032Z,64.65
2023-03-29T06:33:07.076Z,63.79
2023-03-29T06:34:07.018Z,64.31
2023-03-29T06:35:07.015Z,64.65
2023-03-29T06:36:07.076Z,64.52
2023-03-29T06:37:07.014Z,64.21
2023-03-29T06:38:06.974Z,63.79
2023-03-29T06:39:06.980Z,63.18
2023-03-29T06:40:07.013Z,63.39
2023-03-29T06:41:06.940Z,63.18
2023-03-29T06:42:19.964Z,63.31
2023-03-29T06:43:07.923Z,63.42
2023-03-29T06:44:06.914Z,64.14
2023-03-29T06:45:06.902Z,63.72
2023-03-29T06:46:06.944Z,63.96
2023-03-29T06:47:06.898Z,63.96
2023-03-29T06:48:06.910Z,64.68
2023-03-29T06:49:07.092Z,64.48
2023-03-29T06:50:06.841Z,64.27
2023-03-29T06:51:06.832Z,64.37
2023-03-29T06:52:07.136Z,64.89
2023-03-29T06:53:06.822Z,64.34
2023-03-29T06:54:06.795Z,64.27
2023-03-29T06:55:06.807Z,64.58
2023-03-29T06:56:06.922Z,64.48
2023-03-29T06:57:06.798Z,64.78
2023-03-29T06:58:06.778Z,64.78
2023-03-29T06:59:06.746Z,64.45
2023-03-29T07:00:06.740Z,64.34
2023-03-29T07:01:06.872Z,64.11
2023-03-29T07:02:06.787Z,63.82
2023-03-29T07:03:06.768Z,64.24
2023-03-29T07:04:06.725Z,63.82
2023-03-29T07:05:06.689Z,64.21
2023-03-29T07:06:06.712Z,64.00
2023-03-29T07:07:06.687Z,63.18
2023-03-29T07:08:06.648Z,63.39
2023-03-29T07:09:06.669Z,63.28
2023-03-29T07:10:06.655Z,63.28
2023-03-29T07:11:06.623Z,63.18
2023-03-29T07:12:06.619Z,62.97
2023-03-29T07:13:06.604Z,62.84
2023-03-29T07:14:06.596Z,63.15
2023-03-29T07:15:06.646Z,63.35
2023-03-29T07:16:06.625Z,62.84
2023-03-29T07:17:06.553Z,63.15
2023-03-29T07:18:06.594Z,62.22
2023-03-29T07:19:06.528Z,62.12
2023-03-29T07:20:06.548Z,62.01
2023-03-29T07:21:06.537Z,62.01
2023-03-29T07:22:06.530Z,62.84
2023-03-29T07:23:06.483Z,62.40
2023-03-29T07:24:06.476Z,62.71
2023-03-29T07:25:06.500Z,61.75
2023-03-29T07:26:06.479Z,61.75
2023-03-29T07:27:06.443Z,61.75
2023-03-29T07:28:06.488Z,61.44
2023-03-29T07:29:06.423Z,61.54
2023-03-29T07:30:06.416Z,61.96
2023-03-29T07:31:06.416Z,61.78
2023-03-29T07:32:06.419Z,62.08
2023-03-29T07:33:06.477Z,62.19
2023-03-29T07:34:06.374Z,61.98
2023-03-29T07:35:06.384Z,61.75
2023-03-29T07:36:06.376Z,61.54
2023-03-29T07:37:06.341Z,61.44
2023-03-29T07:38:06.327Z,61.72
2023-03-29T07:39:06.310Z,61.41
2023-03-29T07:40:06.302Z,61.49
2023-03-29T07:41:06.326Z,61.15
2023-03-29T07:42:06.317Z,60.33
2023-03-29T07:43:06.267Z,60.43
2023-03-29T07:44:06.299Z,60.09
2023-03-29T07:45:06.255Z,60.33
2023-03-29T07:46:06.266Z,59.68
2023-03-29T07:47:06.262Z,59.89
2023-03-29T07:48:06.275Z,59.68
2023-03-29T07:49:06.241Z,59.06
2023-03-29T07:50:06.198Z,59.58
2023-03-29T07:51:06.178Z,59.89
2023-03-29T07:52:06.211Z,60.09
2023-03-29T07:53:06.186Z,59.86
2023-03-29T07:54:06.186Z,58.83
2023-03-29T07:55:06.140Z,58.52
2023-03-29T07:56:06.123Z,58.83
2023-03-29T07:57:06.151Z,59.14
2023-03-29T07:58:06.108Z,59.55
2023-03-29T07:59:06.119Z,59.96
2023-03-29T08:00:06.114Z,59.14
2023-03-29T08:01:06.417Z,59.45
2023-03-29T08:02:06.054Z,59.34
2023-03-29T08:03:06.174Z,59.03
2023-03-29T08:04:06.152Z,59.65
2023-03-29T08:05:06.136Z,59.22
2023-03-29T08:06:06.051Z,58.57
2023-03-29T08:07:06.014Z,58.70
2023-03-29T08:08:06.004Z,58.67
2023-03-29T08:09:05.994Z,59.08
2023-03-29T08:10:05.976Z,58.51
2023-03-29T08:11:06.010Z,58.00
2023-03-29T08:12:05.958Z,57.79
2023-03-29T08:13:05.959Z,57.05
2023-03-29T08:14:05.941Z,56.95
2023-03-29T08:15:05.959Z,57.23
2023-03-29T08:16:05.961Z,56.62
2023-03-29T08:17:05.947Z,56.79
2023-03-29T08:18:05.968Z,56.46
2023-03-29T08:19:05.884Z,55.85
2023-03-29T08:20:05.894Z,56.26
2023-03-29T08:21:06.014Z,55.66
2023-03-29T08:22:05.861Z,56.28
2023-03-29T08:23:05.849Z,56.15
2023-03-29T08:24:05.842Z,56.15
2023-03-29T08:25:05.816Z,56.05
2023-03-29T08:26:05.888Z,55.72
2023-03-29T08:27:06.690Z,55.28
2023-03-29T08:28:05.784Z,55.38
2023-03-29T08:29:05.780Z,54.57
2023-03-29T08:30:05.766Z,54.44
2023-03-29T08:31:05.913Z,54.25
2023-03-29T08:32:05.774Z,54.54
2023-03-29T08:33:05.855Z,53.82
2023-03-29T08:34:05.725Z,53.82
2023-03-29T08:35:05.743Z,54.49
2023-03-29T08:36:05.767Z,55.00
2023-03-29T08:37:05.694Z,55.41
2023-03-29T08:38:05.723Z,55.28
2023-03-29T08:39:05.675Z,55.38
2023-03-29T08:40:05.662Z,54.36
2023-03-29T08:41:05.657Z,54.64
2023-03-29T08:42:05.672Z,54.33
2023-03-29T08:43:05.629Z,54.64
2023-03-29T08:44:05.611Z,54.41
2023-03-29T08:45:05.643Z,54.54
2023-03-29T08:46:05.607Z,54.36
2023-03-29T08:47:05.613Z,55.90
2023-03-29T08:48:05.661Z,55.46
2023-03-29T08:49:05.583Z,55.33
2023-03-29T08:50:05.553Z,54.21
2023-03-29T08:51:07.874Z,54.51
2023-03-29T08:52:05.528Z,54.18
2023-03-29T08:53:05.556Z,54.18
2023-03-29T08:54:05.510Z,54.10
2023-03-29T08:55:05.590Z,54.26
2023-03-29T08:56:05.490Z,54.08
2023-03-29T08:57:05.542Z,52.48
2023-03-29T08:58:05.494Z,51.33
2023-03-29T08:59:05.452Z,50.29
2023-03-29T09:00:05.443Z,50.32
2023-03-29T09:01:05.664Z,48.63
2023-03-29T09:02:06.263Z,47.71
2023-03-29T09:03:05.572Z,48.57
2023-03-29T09:04:05.564Z,48.02
2023-03-29T09:05:05.453Z,47.69
2023-03-29T09:06:05.394Z,46.08
2023-03-29T09:07:05.358Z,44.05
2023-03-29T09:08:05.377Z,43.30
2023-03-29T09:09:05.378Z,41.71
2023-03-29T09:10:05.336Z,41.17
2023-03-29T09:11:05.323Z,38.96
2023-03-29T09:12:05.320Z,38.98
2023-03-29T09:13:05.420Z,39.00
2023-03-29T09:14:05.318Z,38.92
2023-03-29T09:15:05.366Z,40.16
2023-03-29T09:16:05.336Z,40.40
2023-03-29T09:17:05.268Z,41.55
2023-03-29T09:18:05.266Z,41.28
2023-03-29T09:19:05.328Z,42.74
2023-03-29T09:20:05.285Z,43.46
2023-03-29T09:21:05.227Z,44.12
2023-03-29T09:22:05.244Z,44.40
2023-03-29T09:23:05.198Z,43.32
2023-03-29T09:24:05.198Z,43.12
2023-03-29T09:25:05.199Z,42.72
2023-03-29T09:26:05.174Z,42.64
2023-03-29T09:27:05.223Z,41.73
2023-03-29T09:28:05.146Z,40.75
2023-03-29T09:29:06.138Z,39.88
2023-03-29T09:30:05.142Z,38.62
2023-03-29T09:31:05.432Z,37.88
2023-03-29T09:32:05.133Z,37.90
2023-03-29T09:33:05.147Z,37.50
2023-03-29T09:34:05.088Z,38.02
2023-03-29T09:35:05.068Z,37.53
2023-03-29T09:36:05.166Z,35.26
2023-03-29T09:37:05.043Z,35.23
2023-03-29T09:38:05.038Z,34.43
2023-03-29T09:39:05.057Z,34.33
2023-03-29T09:40:05.278Z,35.51
2023-03-29T09:41:05.452Z,36.96
2023-03-29T09:42:05.033Z,37.18
2023-03-29T09:43:04.994Z,37.13
2023-03-29T09:44:05.034Z,36.19
2023-03-29T09:45:04.994Z,34.93
2023-03-29T09:46:05.022Z,33.86
2023-03-29T09:47:04.956Z,32.51
2023-03-29T09:48:05.048Z,31.40
2023-03-29T09:49:04.953Z,32.32
2023-03-29T09:50:05.017Z,32.54
2023-03-29T09:51:05.126Z,32.47
2023-03-29T09:52:04.937Z,32.87
2023-03-29T09:53:05.019Z,33.40
2023-03-29T09:54:04.933Z,33.70
2023-03-29T09:55:04.862Z,32.57
2023-03-29T09:56:04.860Z,32.35
2023-03-29T09:57:04.888Z,32.92
2023-03-29T09:58:04.871Z,33.58
2023-03-29T09:59:04.823Z,34.16
2023-03-29T10:00:04.820Z,36.46
2023-03-29T10:01:05.059Z,36.94
2023-03-29T10:02:04.815Z,36.43
2023-03-29T10:03:04.849Z,37.38
2023-03-29T10:04:04.804Z,36.21
2023-03-29T10:05:04.763Z,35.36
2023-03-29T10:06:04.747Z,34.94
2023-03-29T10:07:04.744Z,33.91
2023-03-29T10:08:04.850Z,35.05
2023-03-29T10:09:04.754Z,34.51
2023-03-29T10:10:04.748Z,35.31
2023-03-29T10:11:04.895Z,34.99
2023-03-29T10:12:05.242Z,34.96
2023-03-29T10:13:04.713Z,34.14
2023-03-29T10:14:04.735Z,35.26
2023-03-29T10:15:04.693Z,34.61
2023-03-29T10:16:04.668Z,34.26
2023-03-29T10:17:04.637Z,35.19
2023-03-29T10:18:04.677Z,36.01
2023-03-29T10:19:04.774Z,36.75
2023-03-29T10:20:04.790Z,38.16
2023-03-29T10:21:04.741Z,40.40
2023-03-29T10:22:04.593Z,41.33
2023-03-29T10:23:04.588Z,42.11
2023-03-29T10:24:04.593Z,41.99
2023-03-29T10:25:04.602Z,41.17
2023-03-29T10:26:04.689Z,41.19
2023-03-29T10:27:04.558Z,40.89
2023-03-29T10:28:04.537Z,41.11
2023-03-29T10:29:04.514Z,41.59
2023-03-29T10:30:04.514Z,42.46
2023-03-29T10:31:05.070Z,44.25
2023-03-29T10:32:04.641Z,45.98
2023-03-29T10:33:04.501Z,47.03
2023-03-29T10:34:04.497Z,47.54
2023-03-29T10:35:04.449Z,47.99
2023-03-29T10:36:04.478Z,49.33
2023-03-29T10:37:04.428Z,49.87
2023-03-29T10:38:04.422Z,49.13
2023-03-29T10:39:05.896Z,49.74
2023-03-29T10:40:04.449Z,50.37
2023-03-29T10:41:04.524Z,50.40
2023-03-29T10:42:04.410Z,50.83
2023-03-29T10:43:04.355Z,51.26
2023-03-29T10:44:04.352Z,52.50
2023-03-29T10:45:04.348Z,52.50
2023-03-29T10:46:04.370Z,53.11
2023-03-29T10:47:04.351Z,52.50
2023-03-29T10:48:04.338Z,52.37
2023-03-29T10:49:04.298Z,52.58
2023-03-29T10:50:04.300Z,53.09
2023-03-29T10:51:04.554Z,52.98
2023-03-29T10:52:04.296Z,52.98
2023-03-29T10:53:04.288Z,52.15
2023-03-29T10:54:04.247Z,52.63
2023-03-29T10:55:04.232Z,51.95
2023-03-29T10:56:04.267Z,52.17
2023-03-29T10:57:04.237Z,52.83
2023-03-29T10:58:04.231Z,53.55
2023-03-29T10:59:04.184Z,53.44
2023-03-29T11:00:04.219Z,53.44
2023-03-29T11:01:04.527Z,53.96
2023-03-29T11:02:04.214Z,53.96
2023-03-29T11:03:04.278Z,54.16
2023-03-29T11:04:04.238Z,54.26
2023-03-29T11:05:04.130Z,53.96
2023-03-29T11:06:04.217Z,53.96
2023-03-29T11:07:04.105Z,54.13
2023-03-29T11:08:04.259Z,53.65
2023-03-29T11:09:04.082Z,53.55
2023-03-29T11:10:04.077Z,53.65
2023-03-29T11:11:04.283Z,53.72
2023-03-29T11:12:14.925Z,53.11
2023-03-29T11:13:05.075Z,53.72
2023-03-29T11:14:04.055Z,53.72
2023-03-29T11:15:04.022Z,53.72
2023-03-29T11:16:04.024Z,53.02
2023-03-29T11:17:04.032Z,53.02
2023-03-29T11:18:04.078Z,53.02
2023-03-29T11:19:04.024Z,53.11
2023-03-29T11:20:05.192Z,53.24
2023-03-29T11:21:10.144Z,53.65
2023-03-29T11:22:04.942Z,53.34
2023-03-29T11:23:03.934Z,53.65
2023-03-29T11:24:04.024Z,53.85
2023-03-29T11:25:03.929Z,54.18
2023-03-29T11:26:04.777Z,54.39
2023-03-29T11:27:03.897Z,54.00
2023-03-29T11:28:03.936Z,55.02
2023-03-29T11:29:03.913Z,55.56
2023-03-29T11:30:03.855Z,55.46
2023-03-29T11:31:03.976Z,55.97
2023-03-29T11:32:05.190Z,56.20
2023-03-29T11:33:05.835Z,56.40
2023-03-29T11:34:04.566Z,55.82
2023-03-29T11:35:04.163Z,57.21
2023-03-29T11:36:04.030Z,56.27
2023-03-29T11:37:03.960Z,55.33
2023-03-29T11:38:03.784Z,55.63
2023-03-29T11:39:03.792Z,55.41
2023-03-29T11:40:03.781Z,54.77
2023-03-29T11:41:04.108Z,53.93
2023-03-29T11:42:03.798Z,54.13
2023-03-29T11:43:03.748Z,53.93
2023-03-29T11:44:03.817Z,54.03
2023-03-29T11:45:04.278Z,53.96
2023-03-29T11:46:04.515Z,54.26
2023-03-29T11:47:03.884Z,54.79
2023-03-29T11:48:03.870Z,55.10
2023-03-29T11:49:03.769Z,55.00
2023-03-29T11:50:03.773Z,55.63
2023-03-29T11:51:03.896Z,55.84
2023-03-29T11:52:03.739Z,55.33
2023-03-29T11:53:03.738Z,56.17
2023-03-29T11:54:03.658Z,55.74
2023-03-29T11:55:05.312Z,55.33
2023-03-29T11:56:03.694Z,55.61
2023-03-29T11:57:03.748Z,55.30
2023-03-29T11:58:03.672Z,55.63
2023-03-29T11:59:04.283Z,55.63
2023-03-29T12:00:03.769Z,55.74
2023-03-29T12:01:04.366Z,55.53
2023-03-29T12:02:04.847Z,55.66
2023-03-29T12:03:03.767Z,55.76
2023-03-29T12:04:03.686Z,56.30
2023-03-29T12:05:04.293Z,56.20
2023-03-29T12:06:03.554Z,56.37
2023-03-29T12:07:03.612Z,56.37
2023-03-29T12:08:04.287Z,56.15
2023-03-29T12:09:03.486Z,55.91
2023-03-29T12:10:03.481Z,54.59
2023-03-29T12:11:03.562Z,54.08
2023-03-29T12:12:03.529Z,54.79
2023-03-29T12:13:03.622Z,54.16
2023-03-29T12:14:03.554Z,54.05
2023-03-29T12:15:03.451Z,54.05
2023-03-29T12:16:03.413Z,54.03
2023-03-29T12:17:03.530Z,53.52
2023-03-29T12:18:03.905Z,53.65
2023-03-29T12:19:03.331Z,53.42
2023-03-29T12:20:03.336Z,53.34
2023-03-29T12:21:03.320Z,52.94
2023-03-29T12:22:03.370Z,53.34
2023-03-29T12:23:03.384Z,53.98
2023-03-29T12:24:03.323Z,53.57
2023-03-29T12:25:03.429Z,53.37
2023-03-29T12:26:03.392Z,53.47
2023-03-29T12:27:03.443Z,53.47
2023-03-29T12:28:03.471Z,54.08
2023-03-29T12:29:03.809Z,53.98
2023-03-29T12:30:03.219Z,54.08
2023-03-29T12:31:03.558Z,54.28
2023-03-29T12:32:03.321Z,54.11
2023-03-29T12:33:03.899Z,54.11
2023-03-29T12:34:03.411Z,53.98
2023-03-29T12:35:03.462Z,53.98
2023-03-29T12:36:03.258Z,54.08
2023-03-29T12:37:03.137Z,54.18
2023-03-29T12:38:03.155Z,54.08
2023-03-29T12:39:03.153Z,54.18
2023-03-29T12:40:03.115Z,54.08
2023-03-29T12:41:03.307Z,54.39
2023-03-29T12:42:03.082Z,53.98
2023-03-29T12:43:03.084Z,54.08
2023-03-29T12:44:03.057Z,54.18
2023-03-29T12:45:03.120Z,54.28
2023-03-29T12:46:03.257Z,54.28
2023-03-29T12:47:03.035Z,54.39
2023-03-29T12:48:03.124Z,54.28
2023-03-29T12:49:03.012Z,54.08
2023-03-29T12:50:03.026Z,54.16
2023-03-29T12:51:03.075Z,54.05
2023-03-29T12:52:03.008Z,53.75